sensor_id;sensor_type;location;lat;lon;timestamp;P1;durP1;ratioP1;P2;durP2;ratioP2
16314;SDS011;8266;52.150;4.768;2023-10-13T00:02:00;13.77;;;9.80;;
16314;SDS011;8266;52.150;4.768;2023-10-13T00:04:29;8.38;;;6.43;;
16314;SDS011;8266;52.150;4.768;2023-10-13T00:07:00;7.97;;;5.35;;
16314;SDS011;8266;52.150;4.768;2023-10-13T00:09:29;6.07;;;4.32;;
16314;SDS011;8266;52.150;4.768;2023-10-13T00:11:58;6.60;;;3.60;;
16314;SDS011;8266;52.150;4.768;2023-10-13T00:14:27;7.57;;;3.67;;
16314;SDS011;8266;52.150;4.768;2023-10-13T00:16:58;5.88;;;4.50;;
16314;SDS011;8266;52.150;4.768;2023-10-13T00:19:36;6.78;;;4.38;;
16314;SDS011;8266;52.150;4.768;2023-10-13T00:22:10;8.07;;;3.90;;
16314;SDS011;8266;52.150;4.768;2023-10-13T00:24:39;6.03;;;4.07;;
16314;SDS011;8266;52.150;4.768;2023-10-13T00:27:11;6.03;;;3.72;;
16314;SDS011;8266;52.150;4.768;2023-10-13T00:29:55;5.25;;;4.00;;
16314;SDS011;8266;52.150;4.768;2023-10-13T00:32:40;6.43;;;4.68;;
16314;SDS011;8266;52.150;4.768;2023-10-13T00:35:10;7.05;;;5.60;;
16314;SDS011;8266;52.150;4.768;2023-10-13T00:37:40;4.88;;;4.47;;
16314;SDS011;8266;52.150;4.768;2023-10-13T00:40:09;8.52;;;5.88;;
16314;SDS011;8266;52.150;4.768;2023-10-13T00:42:51;6.53;;;6.00;;
16314;SDS011;8266;52.150;4.768;2023-10-13T00:45:21;7.35;;;6.10;;
16314;SDS011;8266;52.150;4.768;2023-10-13T00:47:50;7.30;;;6.57;;
16314;SDS011;8266;52.150;4.768;2023-10-13T00:50:22;6.45;;;5.85;;
16314;SDS011;8266;52.150;4.768;2023-10-13T00:52:49;6.03;;;5.53;;
16314;SDS011;8266;52.150;4.768;2023-10-13T00:55:17;5.97;;;5.43;;
16314;SDS011;8266;52.150;4.768;2023-10-13T00:57:48;6.75;;;6.15;;
16314;SDS011;8266;52.150;4.768;2023-10-13T01:00:18;7.07;;;6.38;;
16314;SDS011;8266;52.150;4.768;2023-10-13T01:02:50;7.68;;;6.95;;
16314;SDS011;8266;52.150;4.768;2023-10-13T01:05:21;8.23;;;7.43;;
16314;SDS011;8266;52.150;4.768;2023-10-13T01:07:48;10.38;;;7.85;;
16314;SDS011;8266;52.150;4.768;2023-10-13T01:10:18;8.15;;;7.20;;
16314;SDS011;8266;52.150;4.768;2023-10-13T01:12:45;9.52;;;8.35;;
16314;SDS011;8266;52.150;4.768;2023-10-13T01:15:12;8.90;;;8.02;;
16314;SDS011;8266;52.150;4.768;2023-10-13T01:17:44;10.52;;;9.02;;
16314;SDS011;8266;52.150;4.768;2023-10-13T01:20:11;10.23;;;9.32;;
16314;SDS011;8266;52.150;4.768;2023-10-13T01:22:44;9.45;;;8.65;;
16314;SDS011;8266;52.150;4.768;2023-10-13T01:25:16;10.75;;;9.48;;
16314;SDS011;8266;52.150;4.768;2023-10-13T01:27:44;10.65;;;9.05;;
16314;SDS011;8266;52.150;4.768;2023-10-13T01:30:14;12.77;;;9.73;;
16314;SDS011;8266;52.150;4.768;2023-10-13T01:32:41;10.27;;;9.30;;
16314;SDS011;8266;52.150;4.768;2023-10-13T01:35:10;10.75;;;9.48;;
16314;SDS011;8266;52.150;4.768;2023-10-13T01:37:36;10.27;;;9.38;;
16314;SDS011;8266;52.150;4.768;2023-10-13T01:40:03;12.35;;;10.77;;
16314;SDS011;8266;52.150;4.768;2023-10-13T01:42:31;10.63;;;9.73;;
16314;SDS011;8266;52.150;4.768;2023-10-13T01:45:02;9.10;;;8.30;;
16314;SDS011;8266;52.150;4.768;2023-10-13T01:47:30;10.18;;;9.20;;
16314;SDS011;8266;52.150;4.768;2023-10-13T01:49:58;10.35;;;8.77;;
16314;SDS011;8266;52.150;4.768;2023-10-13T01:52:31;10.70;;;7.93;;
16314;SDS011;8266;52.150;4.768;2023-10-13T01:54:58;10.70;;;7.68;;
16314;SDS011;8266;52.150;4.768;2023-10-13T01:57:26;7.85;;;6.95;;
16314;SDS011;8266;52.150;4.768;2023-10-13T01:59:54;8.40;;;7.63;;
16314;SDS011;8266;52.150;4.768;2023-10-13T02:02:21;9.48;;;7.35;;
16314;SDS011;8266;52.150;4.768;2023-10-13T02:04:54;7.95;;;7.25;;
16314;SDS011;8266;52.150;4.768;2023-10-13T02:07:25;10.70;;;7.78;;
16314;SDS011;8266;52.150;4.768;2023-10-13T02:09:54;8.65;;;7.82;;
16314;SDS011;8266;52.150;4.768;2023-10-13T02:12:21;9.35;;;7.80;;
16314;SDS011;8266;52.150;4.768;2023-10-13T02:15:03;8.88;;;7.07;;
16314;SDS011;8266;52.150;4.768;2023-10-13T02:17:30;9.95;;;8.18;;
16314;SDS011;8266;52.150;4.768;2023-10-13T02:20:06;12.55;;;7.75;;
16314;SDS011;8266;52.150;4.768;2023-10-13T02:22:40;8.35;;;7.53;;
16314;SDS011;8266;52.150;4.768;2023-10-13T02:25:14;7.57;;;6.78;;
16314;SDS011;8266;52.150;4.768;2023-10-13T02:27:59;7.53;;;6.47;;
16314;SDS011;8266;52.150;4.768;2023-10-13T02:30:27;7.50;;;6.63;;
16314;SDS011;8266;52.150;4.768;2023-10-13T02:32:54;7.13;;;6.45;;
16314;SDS011;8266;52.150;4.768;2023-10-13T02:35:20;7.70;;;6.15;;
16314;SDS011;8266;52.150;4.768;2023-10-13T02:37:55;6.90;;;6.20;;
16314;SDS011;8266;52.150;4.768;2023-10-13T02:40:23;8.02;;;6.38;;
16314;SDS011;8266;52.150;4.768;2023-10-13T02:42:50;7.32;;;6.63;;
16314;SDS011;8266;52.150;4.768;2023-10-13T02:45:17;7.00;;;6.03;;
16314;SDS011;8266;52.150;4.768;2023-10-13T02:47:48;8.90;;;6.30;;
16314;SDS011;8266;52.150;4.768;2023-10-13T02:50:34;7.30;;;6.13;;
16314;SDS011;8266;52.150;4.768;2023-10-13T02:53:03;7.18;;;6.28;;
16314;SDS011;8266;52.150;4.768;2023-10-13T02:55:30;7.70;;;6.05;;
16314;SDS011;8266;52.150;4.768;2023-10-13T02:57:57;6.88;;;5.90;;
16314;SDS011;8266;52.150;4.768;2023-10-13T03:00:24;7.47;;;5.90;;
16314;SDS011;8266;52.150;4.768;2023-10-13T03:02:58;7.07;;;6.03;;
16314;SDS011;8266;52.150;4.768;2023-10-13T03:05:24;7.40;;;6.35;;
16314;SDS011;8266;52.150;4.768;2023-10-13T03:07:54;7.43;;;6.43;;
16314;SDS011;8266;52.150;4.768;2023-10-13T03:10:23;7.28;;;6.65;;
16314;SDS011;8266;52.150;4.768;2023-10-13T03:12:54;7.38;;;6.68;;
16314;SDS011;8266;52.150;4.768;2023-10-13T03:15:22;7.55;;;6.30;;
16314;SDS011;8266;52.150;4.768;2023-10-13T03:17:53;6.95;;;6.28;;
16314;SDS011;8266;52.150;4.768;2023-10-13T03:20:25;6.85;;;6.25;;
16314;SDS011;8266;52.150;4.768;2023-10-13T03:22:56;6.22;;;5.43;;
16314;SDS011;8266;52.150;4.768;2023-10-13T03:25:24;6.65;;;5.90;;
16314;SDS011;8266;52.150;4.768;2023-10-13T03:27:54;5.40;;;4.97;;
16314;SDS011;8266;52.150;4.768;2023-10-13T03:30:30;6.35;;;4.38;;
16314;SDS011;8266;52.150;4.768;2023-10-13T03:33:01;7.47;;;4.50;;
16314;SDS011;8266;52.150;4.768;2023-10-13T03:35:33;5.88;;;4.55;;
16314;SDS011;8266;52.150;4.768;2023-10-13T03:38:05;4.65;;;4.18;;
16314;SDS011;8266;52.150;4.768;2023-10-13T03:40:40;5.60;;;4.30;;
16314;SDS011;8266;52.150;4.768;2023-10-13T03:43:07;5.32;;;4.30;;
16314;SDS011;8266;52.150;4.768;2023-10-13T03:45:36;5.95;;;4.72;;
16314;SDS011;8266;52.150;4.768;2023-10-13T03:48:05;4.80;;;4.30;;
16314;SDS011;8266;52.150;4.768;2023-10-13T03:50:38;6.03;;;4.85;;
16314;SDS011;8266;52.150;4.768;2023-10-13T03:53:12;5.55;;;4.25;;
16314;SDS011;8266;52.150;4.768;2023-10-13T03:55:39;5.28;;;4.60;;
16314;SDS011;8266;52.150;4.768;2023-10-13T03:58:13;5.15;;;4.53;;
16314;SDS011;8266;52.150;4.768;2023-10-13T04:00:41;5.95;;;3.85;;
16314;SDS011;8266;52.150;4.768;2023-10-13T04:03:08;4.20;;;3.50;;
16314;SDS011;8266;52.150;4.768;2023-10-13T04:05:43;6.65;;;3.13;;
16314;SDS011;8266;52.150;4.768;2023-10-13T04:08:25;4.43;;;3.05;;
16314;SDS011;8266;52.150;4.768;2023-10-13T04:11:13;4.75;;;2.90;;
16314;SDS011;8266;52.150;4.768;2023-10-13T04:13:58;7.20;;;2.83;;
16314;SDS011;8266;52.150;4.768;2023-10-13T04:16:42;3.55;;;2.90;;
16314;SDS011;8266;52.150;4.768;2023-10-13T04:19:17;3.75;;;3.10;;
16314;SDS011;8266;52.150;4.768;2023-10-13T04:21:53;5.20;;;3.47;;
16314;SDS011;8266;52.150;4.768;2023-10-13T04:24:39;4.88;;;4.20;;
16314;SDS011;8266;52.150;4.768;2023-10-13T04:27:20;5.72;;;5.05;;
16314;SDS011;8266;52.150;4.768;2023-10-13T04:30:06;5.90;;;5.30;;
16314;SDS011;8266;52.150;4.768;2023-10-13T04:32:36;5.95;;;4.80;;
16314;SDS011;8266;52.150;4.768;2023-10-13T04:35:11;5.47;;;4.97;;
16314;SDS011;8266;52.150;4.768;2023-10-13T04:37:45;4.57;;;4.18;;
16314;SDS011;8266;52.150;4.768;2023-10-13T04:40:17;6.07;;;3.20;;
16314;SDS011;8266;52.150;4.768;2023-10-13T04:42:44;3.63;;;2.97;;
16314;SDS011;8266;52.150;4.768;2023-10-13T04:45:18;3.50;;;2.20;;
16314;SDS011;8266;52.150;4.768;2023-10-13T04:48:03;3.83;;;2.28;;
16314;SDS011;8266;52.150;4.768;2023-10-13T04:50:48;4.15;;;2.60;;
16314;SDS011;8266;52.150;4.768;2023-10-13T04:53:18;3.80;;;3.08;;
16314;SDS011;8266;52.150;4.768;2023-10-13T04:55:58;3.13;;;2.83;;
16314;SDS011;8266;52.150;4.768;2023-10-13T04:58:54;4.05;;;3.22;;
16314;SDS011;8266;52.150;4.768;2023-10-13T05:01:39;4.40;;;2.90;;
16314;SDS011;8266;52.150;4.768;2023-10-13T05:04:20;3.75;;;2.88;;
16314;SDS011;8266;52.150;4.768;2023-10-13T05:07:03;2.88;;;2.55;;
16314;SDS011;8266;52.150;4.768;2023-10-13T05:09:49;5.07;;;3.00;;
16314;SDS011;8266;52.150;4.768;2023-10-13T05:12:33;4.15;;;2.40;;
16314;SDS011;8266;52.150;4.768;2023-10-13T05:15:18;3.90;;;2.53;;
16314;SDS011;8266;52.150;4.768;2023-10-13T05:18:03;4.55;;;2.65;;
16314;SDS011;8266;52.150;4.768;2023-10-13T05:20:47;6.05;;;2.80;;
16314;SDS011;8266;52.150;4.768;2023-10-13T05:23:32;5.40;;;2.95;;
16314;SDS011;8266;52.150;4.768;2023-10-13T05:26:17;5.55;;;2.53;;
16314;SDS011;8266;52.150;4.768;2023-10-13T05:29:02;5.07;;;3.03;;
16314;SDS011;8266;52.150;4.768;2023-10-13T05:31:46;5.90;;;3.30;;
16314;SDS011;8266;52.150;4.768;2023-10-13T05:34:30;9.90;;;3.63;;
16314;SDS011;8266;52.150;4.768;2023-10-13T05:37:15;5.63;;;3.00;;
16314;SDS011;8266;52.150;4.768;2023-10-13T05:40:00;5.57;;;3.63;;
16314;SDS011;8266;52.150;4.768;2023-10-13T05:42:45;5.40;;;3.60;;
16314;SDS011;8266;52.150;4.768;2023-10-13T05:45:29;7.93;;;4.43;;
16314;SDS011;8266;52.150;4.768;2023-10-13T05:48:16;6.82;;;3.60;;
16314;SDS011;8266;52.150;4.768;2023-10-13T05:50:49;5.00;;;3.35;;
16314;SDS011;8266;52.150;4.768;2023-10-13T05:53:35;8.32;;;3.63;;
16314;SDS011;8266;52.150;4.768;2023-10-13T05:56:31;6.15;;;3.92;;
16314;SDS011;8266;52.150;4.768;2023-10-13T05:59:17;5.93;;;3.20;;
16314;SDS011;8266;52.150;4.768;2023-10-13T06:02:01;8.60;;;3.05;;
16314;SDS011;8266;52.150;4.768;2023-10-13T06:04:46;6.63;;;3.45;;
16314;SDS011;8266;52.150;4.768;2023-10-13T06:07:30;7.28;;;3.67;;
16314;SDS011;8266;52.150;4.768;2023-10-13T06:10:14;7.70;;;3.72;;
16314;SDS011;8266;52.150;4.768;2023-10-13T06:12:59;6.57;;;2.90;;
16314;SDS011;8266;52.150;4.768;2023-10-13T06:15:44;4.43;;;2.70;;
16314;SDS011;8266;52.150;4.768;2023-10-13T06:18:29;3.08;;;2.63;;
16314;SDS011;8266;52.150;4.768;2023-10-13T06:21:13;7.72;;;3.33;;
16314;SDS011;8266;52.150;4.768;2023-10-13T06:23:58;4.57;;;2.60;;
16314;SDS011;8266;52.150;4.768;2023-10-13T06:26:42;5.63;;;3.03;;
16314;SDS011;8266;52.150;4.768;2023-10-13T06:29:26;4.38;;;3.03;;
16314;SDS011;8266;52.150;4.768;2023-10-13T06:31:55;4.43;;;2.97;;
16314;SDS011;8266;52.150;4.768;2023-10-13T06:34:23;5.65;;;3.25;;
16314;SDS011;8266;52.150;4.768;2023-10-13T06:37:03;5.72;;;2.70;;
16314;SDS011;8266;52.150;4.768;2023-10-13T06:39:47;5.47;;;3.10;;
16314;SDS011;8266;52.150;4.768;2023-10-13T06:42:14;5.30;;;3.22;;
16314;SDS011;8266;52.150;4.768;2023-10-13T06:44:41;6.32;;;3.35;;
16314;SDS011;8266;52.150;4.768;2023-10-13T06:47:12;4.75;;;3.38;;
16314;SDS011;8266;52.150;4.768;2023-10-13T06:49:39;6.97;;;3.30;;
16314;SDS011;8266;52.150;4.768;2023-10-13T06:52:08;7.03;;;3.97;;
16314;SDS011;8266;52.150;4.768;2023-10-13T06:54:35;7.00;;;4.07;;
16314;SDS011;8266;52.150;4.768;2023-10-13T06:57:04;8.57;;;4.15;;
16314;SDS011;8266;52.150;4.768;2023-10-13T06:59:32;9.05;;;4.10;;
16314;SDS011;8266;52.150;4.768;2023-10-13T07:02:01;6.82;;;4.38;;
16314;SDS011;8266;52.150;4.768;2023-10-13T07:04:32;7.20;;;3.83;;
16314;SDS011;8266;52.150;4.768;2023-10-13T07:06:59;6.05;;;4.35;;
16314;SDS011;8266;52.150;4.768;2023-10-13T07:09:27;6.18;;;4.50;;
16314;SDS011;8266;52.150;4.768;2023-10-13T07:12:06;7.65;;;4.85;;
16314;SDS011;8266;52.150;4.768;2023-10-13T07:14:44;8.05;;;5.32;;
16314;SDS011;8266;52.150;4.768;2023-10-13T07:17:17;7.78;;;5.03;;
16314;SDS011;8266;52.150;4.768;2023-10-13T07:19:50;6.07;;;4.53;;
16314;SDS011;8266;52.150;4.768;2023-10-13T07:22:21;7.25;;;4.82;;
16314;SDS011;8266;52.150;4.768;2023-10-13T07:24:51;5.57;;;4.50;;
16314;SDS011;8266;52.150;4.768;2023-10-13T07:27:18;7.60;;;4.55;;
16314;SDS011;8266;52.150;4.768;2023-10-13T07:29:49;7.15;;;4.93;;
16314;SDS011;8266;52.150;4.768;2023-10-13T07:32:23;6.88;;;5.05;;
16314;SDS011;8266;52.150;4.768;2023-10-13T07:34:55;5.78;;;4.68;;
16314;SDS011;8266;52.150;4.768;2023-10-13T07:37:22;8.63;;;5.40;;
16314;SDS011;8266;52.150;4.768;2023-10-13T07:39:54;6.25;;;4.75;;
16314;SDS011;8266;52.150;4.768;2023-10-13T07:42:24;8.07;;;4.75;;
16314;SDS011;8266;52.150;4.768;2023-10-13T07:44:57;6.80;;;4.75;;
16314;SDS011;8266;52.150;4.768;2023-10-13T07:47:24;7.38;;;4.63;;
16314;SDS011;8266;52.150;4.768;2023-10-13T07:49:54;8.52;;;5.18;;
16314;SDS011;8266;52.150;4.768;2023-10-13T07:52:22;7.03;;;4.88;;
16314;SDS011;8266;52.150;4.768;2023-10-13T07:55:01;9.50;;;5.10;;
16314;SDS011;8266;52.150;4.768;2023-10-13T07:57:36;13.43;;;5.22;;
16314;SDS011;8266;52.150;4.768;2023-10-13T08:00:18;7.53;;;4.65;;
16314;SDS011;8266;52.150;4.768;2023-10-13T08:02:58;7.70;;;4.00;;
16314;SDS011;8266;52.150;4.768;2023-10-13T08:05:35;7.15;;;4.25;;
16314;SDS011;8266;52.150;4.768;2023-10-13T08:08:21;5.05;;;3.75;;
16314;SDS011;8266;52.150;4.768;2023-10-13T08:10:50;7.60;;;4.47;;
16314;SDS011;8266;52.150;4.768;2023-10-13T08:13:20;11.45;;;4.22;;
16314;SDS011;8266;52.150;4.768;2023-10-13T08:15:48;12.27;;;4.55;;
16314;SDS011;8266;52.150;4.768;2023-10-13T08:18:17;9.55;;;4.07;;
16314;SDS011;8266;52.150;4.768;2023-10-13T08:20:56;6.35;;;4.07;;
16314;SDS011;8266;52.150;4.768;2023-10-13T08:23:28;8.15;;;4.40;;
16314;SDS011;8266;52.150;4.768;2023-10-13T08:26:20;9.45;;;4.03;;
16314;SDS011;8266;52.150;4.768;2023-10-13T08:29:04;6.85;;;3.88;;
16314;SDS011;8266;52.150;4.768;2023-10-13T08:31:45;8.57;;;4.07;;
16314;SDS011;8266;52.150;4.768;2023-10-13T08:34:34;6.05;;;3.50;;
16314;SDS011;8266;52.150;4.768;2023-10-13T08:37:26;10.05;;;3.92;;
16314;SDS011;8266;52.150;4.768;2023-10-13T08:39:55;6.47;;;3.72;;
16314;SDS011;8266;52.150;4.768;2023-10-13T08:42:48;7.38;;;4.20;;
16314;SDS011;8266;52.150;4.768;2023-10-13T08:45:36;8.13;;;3.63;;
16314;SDS011;8266;52.150;4.768;2023-10-13T08:48:25;13.27;;;3.97;;
16314;SDS011;8266;52.150;4.768;2023-10-13T08:50:57;5.45;;;3.55;;
16314;SDS011;8266;52.150;4.768;2023-10-13T08:53:31;6.43;;;3.70;;
16314;SDS011;8266;52.150;4.768;2023-10-13T08:56:09;7.15;;;3.92;;
16314;SDS011;8266;52.150;4.768;2023-10-13T08:58:40;9.55;;;4.18;;
16314;SDS011;8266;52.150;4.768;2023-10-13T09:01:32;6.15;;;3.45;;
16314;SDS011;8266;52.150;4.768;2023-10-13T09:04:05;6.28;;;3.30;;
16314;SDS011;8266;52.150;4.768;2023-10-13T09:06:51;9.35;;;3.58;;
16314;SDS011;8266;52.150;4.768;2023-10-13T09:09:47;11.57;;;3.72;;
16314;SDS011;8266;52.150;4.768;2023-10-13T09:12:38;6.43;;;3.80;;
16314;SDS011;8266;52.150;4.768;2023-10-13T09:15:28;6.75;;;3.83;;
16314;SDS011;8266;52.150;4.768;2023-10-13T09:18:24;8.38;;;3.75;;
16314;SDS011;8266;52.150;4.768;2023-10-13T09:21:06;11.25;;;4.53;;
16314;SDS011;8266;52.150;4.768;2023-10-13T09:23:54;5.78;;;3.50;;
16314;SDS011;8266;52.150;4.768;2023-10-13T09:26:43;7.68;;;3.85;;
16314;SDS011;8266;52.150;4.768;2023-10-13T09:29:15;8.57;;;4.32;;
16314;SDS011;8266;52.150;4.768;2023-10-13T09:31:43;9.07;;;3.70;;
16314;SDS011;8266;52.150;4.768;2023-10-13T09:34:19;9.10;;;3.95;;
16314;SDS011;8266;52.150;4.768;2023-10-13T09:36:46;8.13;;;3.65;;
16314;SDS011;8266;52.150;4.768;2023-10-13T09:39:20;15.93;;;3.75;;
16314;SDS011;8266;52.150;4.768;2023-10-13T09:41:56;9.02;;;4.35;;
16314;SDS011;8266;52.150;4.768;2023-10-13T09:44:24;8.45;;;3.95;;
16314;SDS011;8266;52.150;4.768;2023-10-13T09:46:55;6.97;;;3.95;;
16314;SDS011;8266;52.150;4.768;2023-10-13T09:49:33;6.63;;;4.30;;
16314;SDS011;8266;52.150;4.768;2023-10-13T09:52:10;8.30;;;4.03;;
16314;SDS011;8266;52.150;4.768;2023-10-13T09:54:44;9.20;;;4.00;;
16314;SDS011;8266;52.150;4.768;2023-10-13T09:57:26;10.25;;;4.20;;
16314;SDS011;8266;52.150;4.768;2023-10-13T10:00:00;6.97;;;4.13;;
16314;SDS011;8266;52.150;4.768;2023-10-13T10:02:51;9.75;;;4.10;;
16314;SDS011;8266;52.150;4.768;2023-10-13T10:05:23;8.52;;;4.57;;
16314;SDS011;8266;52.150;4.768;2023-10-13T10:07:56;7.68;;;3.92;;
16314;SDS011;8266;52.150;4.768;2023-10-13T10:10:26;6.25;;;3.80;;
16314;SDS011;8266;52.150;4.768;2023-10-13T10:13:13;11.88;;;4.43;;
16314;SDS011;8266;52.150;4.768;2023-10-13T10:15:48;8.70;;;3.70;;
16314;SDS011;8266;52.150;4.768;2023-10-13T10:18:19;7.28;;;3.97;;
16314;SDS011;8266;52.150;4.768;2023-10-13T10:20:48;6.85;;;4.13;;
16314;SDS011;8266;52.150;4.768;2023-10-13T10:23:23;5.50;;;3.85;;
16314;SDS011;8266;52.150;4.768;2023-10-13T10:25:52;9.63;;;4.43;;
16314;SDS011;8266;52.150;4.768;2023-10-13T10:28:37;12.98;;;3.85;;
16314;SDS011;8266;52.150;4.768;2023-10-13T10:31:06;10.40;;;3.97;;
16314;SDS011;8266;52.150;4.768;2023-10-13T10:33:38;10.38;;;4.05;;
16314;SDS011;8266;52.150;4.768;2023-10-13T10:36:05;7.97;;;4.30;;
16314;SDS011;8266;52.150;4.768;2023-10-13T10:38:50;9.70;;;3.97;;
16314;SDS011;8266;52.150;4.768;2023-10-13T10:41:25;9.45;;;3.83;;
16314;SDS011;8266;52.150;4.768;2023-10-13T10:43:59;7.13;;;3.72;;
16314;SDS011;8266;52.150;4.768;2023-10-13T10:46:33;9.05;;;3.72;;
16314;SDS011;8266;52.150;4.768;2023-10-13T10:49:05;7.43;;;3.95;;
16314;SDS011;8266;52.150;4.768;2023-10-13T10:51:33;10.05;;;4.20;;
16314;SDS011;8266;52.150;4.768;2023-10-13T10:54:17;7.03;;;3.60;;
16314;SDS011;8266;52.150;4.768;2023-10-13T10:56:45;10.77;;;4.60;;
16314;SDS011;8266;52.150;4.768;2023-10-13T10:59:19;7.60;;;4.20;;
16314;SDS011;8266;52.150;4.768;2023-10-13T11:01:50;9.85;;;3.70;;
16314;SDS011;8266;52.150;4.768;2023-10-13T11:04:17;8.05;;;4.57;;
16314;SDS011;8266;52.150;4.768;2023-10-13T11:06:50;8.38;;;4.35;;
16314;SDS011;8266;52.150;4.768;2023-10-13T11:09:23;6.50;;;4.45;;
16314;SDS011;8266;52.150;4.768;2023-10-13T11:12:11;6.97;;;4.53;;
16314;SDS011;8266;52.150;4.768;2023-10-13T11:14:59;7.57;;;4.07;;
16314;SDS011;8266;52.150;4.768;2023-10-13T11:17:27;10.40;;;4.72;;
16314;SDS011;8266;52.150;4.768;2023-10-13T11:20:10;8.77;;;4.38;;
16314;SDS011;8266;52.150;4.768;2023-10-13T11:22:58;7.50;;;4.72;;
16314;SDS011;8266;52.150;4.768;2023-10-13T11:25:25;8.77;;;4.68;;
16314;SDS011;8266;52.150;4.768;2023-10-13T11:27:56;8.20;;;4.22;;
16314;SDS011;8266;52.150;4.768;2023-10-13T11:30:26;8.43;;;4.22;;
16314;SDS011;8266;52.150;4.768;2023-10-13T11:33:07;9.50;;;4.43;;
16314;SDS011;8266;52.150;4.768;2023-10-13T11:35:35;12.75;;;5.28;;
16314;SDS011;8266;52.150;4.768;2023-10-13T11:38:20;8.68;;;4.20;;
16314;SDS011;8266;52.150;4.768;2023-10-13T11:40:52;12.32;;;5.05;;
16314;SDS011;8266;52.150;4.768;2023-10-13T11:43:38;9.75;;;4.47;;
16314;SDS011;8266;52.150;4.768;2023-10-13T11:46:25;9.30;;;4.93;;
16314;SDS011;8266;52.150;4.768;2023-10-13T11:49:21;7.32;;;4.32;;
16314;SDS011;8266;52.150;4.768;2023-10-13T11:51:59;8.88;;;4.30;;
16314;SDS011;8266;52.150;4.768;2023-10-13T11:54:42;9.68;;;4.68;;
16314;SDS011;8266;52.150;4.768;2023-10-13T11:57:09;13.35;;;4.43;;
16314;SDS011;8266;52.150;4.768;2023-10-13T11:59:36;11.32;;;5.03;;
16314;SDS011;8266;52.150;4.768;2023-10-13T12:02:12;9.00;;;4.28;;
16314;SDS011;8266;52.150;4.768;2023-10-13T12:04:56;11.05;;;4.30;;
16314;SDS011;8266;52.150;4.768;2023-10-13T12:07:24;10.05;;;4.75;;
16314;SDS011;8266;52.150;4.768;2023-10-13T12:10:10;10.70;;;4.47;;
16314;SDS011;8266;52.150;4.768;2023-10-13T12:12:42;9.57;;;5.28;;
16314;SDS011;8266;52.150;4.768;2023-10-13T12:15:11;7.35;;;4.20;;
16314;SDS011;8266;52.150;4.768;2023-10-13T12:17:51;8.88;;;4.55;;
16314;SDS011;8266;52.150;4.768;2023-10-13T12:20:22;9.38;;;4.32;;
16314;SDS011;8266;52.150;4.768;2023-10-13T12:22:58;9.55;;;4.90;;
16314;SDS011;8266;52.150;4.768;2023-10-13T12:25:36;7.13;;;4.43;;
16314;SDS011;8266;52.150;4.768;2023-10-13T12:28:20;10.13;;;4.90;;
16314;SDS011;8266;52.150;4.768;2023-10-13T12:30:48;11.00;;;4.82;;
16314;SDS011;8266;52.150;4.768;2023-10-13T12:33:19;9.07;;;4.75;;
16314;SDS011;8266;52.150;4.768;2023-10-13T12:36:02;8.55;;;4.28;;
16314;SDS011;8266;52.150;4.768;2023-10-13T12:38:32;9.23;;;5.15;;
16314;SDS011;8266;52.150;4.768;2023-10-13T12:41:47;9.18;;;4.65;;
16314;SDS011;8266;52.150;4.768;2023-10-13T12:44:32;7.35;;;4.18;;
16314;SDS011;8266;52.150;4.768;2023-10-13T12:47:16;7.53;;;4.40;;
16314;SDS011;8266;52.150;4.768;2023-10-13T12:50:02;10.45;;;4.82;;
16314;SDS011;8266;52.150;4.768;2023-10-13T12:52:39;12.00;;;5.72;;
16314;SDS011;8266;52.150;4.768;2023-10-13T12:55:10;11.55;;;5.57;;
16314;SDS011;8266;52.150;4.768;2023-10-13T12:57:40;8.25;;;4.85;;
16314;SDS011;8266;52.150;4.768;2023-10-13T13:00:10;8.95;;;5.00;;
16314;SDS011;8266;52.150;4.768;2023-10-13T13:02:50;11.40;;;5.15;;
16314;SDS011;8266;52.150;4.768;2023-10-13T13:05:21;10.68;;;4.97;;
16314;SDS011;8266;52.150;4.768;2023-10-13T13:07:53;9.98;;;4.75;;
16314;SDS011;8266;52.150;4.768;2023-10-13T13:10:21;10.60;;;4.90;;
16314;SDS011;8266;52.150;4.768;2023-10-13T13:13:00;12.68;;;5.13;;
16314;SDS011;8266;52.150;4.768;2023-10-13T13:15:28;8.00;;;4.88;;
16314;SDS011;8266;52.150;4.768;2023-10-13T13:17:55;7.15;;;4.50;;
16314;SDS011;8266;52.150;4.768;2023-10-13T13:20:24;9.43;;;4.68;;
16314;SDS011;8266;52.150;4.768;2023-10-13T13:22:55;12.98;;;4.70;;
16314;SDS011;8266;52.150;4.768;2023-10-13T13:25:27;6.70;;;4.18;;
16314;SDS011;8266;52.150;4.768;2023-10-13T13:27:57;10.07;;;4.90;;
16314;SDS011;8266;52.150;4.768;2023-10-13T13:30:29;9.77;;;4.85;;
16314;SDS011;8266;52.150;4.768;2023-10-13T13:32:59;11.60;;;5.25;;
16314;SDS011;8266;52.150;4.768;2023-10-13T13:35:30;9.50;;;4.43;;
16314;SDS011;8266;52.150;4.768;2023-10-13T13:38:00;8.80;;;4.82;;
16314;SDS011;8266;52.150;4.768;2023-10-13T13:40:35;6.00;;;4.50;;
16314;SDS011;8266;52.150;4.768;2023-10-13T13:43:03;12.32;;;4.97;;
16314;SDS011;8266;52.150;4.768;2023-10-13T13:45:30;14.48;;;5.53;;
16314;SDS011;8266;52.150;4.768;2023-10-13T13:47:57;10.73;;;5.25;;
16314;SDS011;8266;52.150;4.768;2023-10-13T13:50:24;8.45;;;4.97;;
16314;SDS011;8266;52.150;4.768;2023-10-13T13:52:56;8.93;;;4.80;;
16314;SDS011;8266;52.150;4.768;2023-10-13T13:55:23;13.27;;;5.82;;
16314;SDS011;8266;52.150;4.768;2023-10-13T13:57:55;11.10;;;5.75;;
16314;SDS011;8266;52.150;4.768;2023-10-13T14:00:22;9.43;;;4.93;;
16314;SDS011;8266;52.150;4.768;2023-10-13T14:03:02;10.88;;;5.68;;
16314;SDS011;8266;52.150;4.768;2023-10-13T14:05:29;8.52;;;4.95;;
16314;SDS011;8266;52.150;4.768;2023-10-13T14:07:57;11.35;;;5.72;;
16314;SDS011;8266;52.150;4.768;2023-10-13T14:10:24;11.68;;;5.07;;
16314;SDS011;8266;52.150;4.768;2023-10-13T14:12:59;10.48;;;5.53;;
16314;SDS011;8266;52.150;4.768;2023-10-13T14:15:32;10.88;;;5.65;;
16314;SDS011;8266;52.150;4.768;2023-10-13T14:18:05;12.27;;;6.82;;
16314;SDS011;8266;52.150;4.768;2023-10-13T14:20:38;10.48;;;5.43;;
16314;SDS011;8266;52.150;4.768;2023-10-13T14:23:06;13.30;;;5.03;;
16314;SDS011;8266;52.150;4.768;2023-10-13T14:25:36;10.98;;;5.60;;
16314;SDS011;8266;52.150;4.768;2023-10-13T14:28:04;9.93;;;4.20;;
16314;SDS011;8266;52.150;4.768;2023-10-13T14:30:32;7.88;;;4.65;;
16314;SDS011;8266;52.150;4.768;2023-10-13T14:32:59;6.57;;;3.72;;
16314;SDS011;8266;52.150;4.768;2023-10-13T14:35:26;11.02;;;4.78;;
16314;SDS011;8266;52.150;4.768;2023-10-13T14:37:54;8.55;;;3.47;;
16314;SDS011;8266;52.150;4.768;2023-10-13T14:40:22;8.13;;;3.00;;
16314;SDS011;8266;52.150;4.768;2023-10-13T14:42:49;6.25;;;2.60;;
16314;SDS011;8266;52.150;4.768;2023-10-13T14:45:16;6.55;;;2.03;;
16314;SDS011;8266;52.150;4.768;2023-10-13T14:47:43;6.70;;;2.40;;
16314;SDS011;8266;52.150;4.768;2023-10-13T14:50:11;8.45;;;2.15;;
16314;SDS011;8266;52.150;4.768;2023-10-13T14:52:45;4.90;;;2.13;;
16314;SDS011;8266;52.150;4.768;2023-10-13T14:55:13;6.20;;;2.08;;
16314;SDS011;8266;52.150;4.768;2023-10-13T14:58:04;6.13;;;2.28;;
16314;SDS011;8266;52.150;4.768;2023-10-13T15:00:33;8.48;;;3.00;;
16314;SDS011;8266;52.150;4.768;2023-10-13T15:03:00;7.20;;;2.80;;
16314;SDS011;8266;52.150;4.768;2023-10-13T15:05:30;10.50;;;3.40;;
16314;SDS011;8266;52.150;4.768;2023-10-13T15:08:00;8.50;;;3.53;;
16314;SDS011;8266;52.150;4.768;2023-10-13T15:10:28;17.65;;;4.97;;
16314;SDS011;8266;52.150;4.768;2023-10-13T15:12:55;12.70;;;4.38;;
16314;SDS011;8266;52.150;4.768;2023-10-13T15:15:25;17.30;;;4.50;;
16314;SDS011;8266;52.150;4.768;2023-10-13T15:17:55;9.50;;;4.75;;
16314;SDS011;8266;52.150;4.768;2023-10-13T15:20:22;11.52;;;4.78;;
16314;SDS011;8266;52.150;4.768;2023-10-13T15:22:49;11.27;;;4.60;;
16314;SDS011;8266;52.150;4.768;2023-10-13T15:25:19;9.75;;;4.35;;
16314;SDS011;8266;52.150;4.768;2023-10-13T15:27:53;14.93;;;5.00;;
16314;SDS011;8266;52.150;4.768;2023-10-13T15:30:28;16.40;;;4.90;;
16314;SDS011;8266;52.150;4.768;2023-10-13T15:33:09;16.00;;;5.60;;
16314;SDS011;8266;52.150;4.768;2023-10-13T15:35:37;15.55;;;5.10;;
16314;SDS011;8266;52.150;4.768;2023-10-13T15:38:07;15.93;;;5.18;;
16314;SDS011;8266;52.150;4.768;2023-10-13T15:40:39;12.40;;;4.43;;
16314;SDS011;8266;52.150;4.768;2023-10-13T15:43:08;12.20;;;5.03;;